sensor_id;sensor_type;location;lat;lon;timestamp;P1;durP1;ratioP1;P2;durP2;ratioP2
21432;SDS011;18592;49.708;10.900;2023-06-14T00:00:10;4.38;;;3.97;;
21432;SDS011;18592;49.708;10.900;2023-06-14T00:02:12;4.63;;;4.15;;
21432;SDS011;18592;49.708;10.900;2023-06-14T00:04:14;5.72;;;4.20;;
21432;SDS011;18592;49.708;10.900;2023-06-14T00:06:18;4.40;;;4.00;;
21432;SDS011;18592;49.708;10.900;2023-06-14T00:08:21;4.70;;;4.22;;
21432;SDS011;18592;49.708;10.900;2023-06-14T00:10:24;5.22;;;4.30;;
21432;SDS011;18592;49.708;10.900;2023-06-14T00:12:26;4.88;;;4.38;;
21432;SDS011;18592;49.708;10.900;2023-06-14T00:14:28;5.22;;;4.57;;
21432;SDS011;18592;49.708;10.900;2023-06-14T00:16:31;6.13;;;4.60;;
21432;SDS011;18592;49.708;10.900;2023-06-14T00:18:35;5.30;;;4.80;;
21432;SDS011;18592;49.708;10.900;2023-06-14T00:20:36;5.63;;;4.88;;
21432;SDS011;18592;49.708;10.900;2023-06-14T00:22:38;6.18;;;5.00;;
21432;SDS011;18592;49.708;10.900;2023-06-14T00:24:40;5.53;;;4.82;;
21432;SDS011;18592;49.708;10.900;2023-06-14T00:26:42;7.28;;;4.68;;
21432;SDS011;18592;49.708;10.900;2023-06-14T00:28:45;5.28;;;4.40;;
21432;SDS011;18592;49.708;10.900;2023-06-14T00:31:12;4.63;;;4.15;;
21432;SDS011;18592;49.708;10.900;2023-06-14T00:33:22;4.90;;;4.40;;
21432;SDS011;18592;49.708;10.900;2023-06-14T00:35:23;5.28;;;4.50;;
21432;SDS011;18592;49.708;10.900;2023-06-14T00:37:25;5.45;;;3.92;;
21432;SDS011;18592;49.708;10.900;2023-06-14T00:39:27;4.45;;;3.63;;
21432;SDS011;18592;49.708;10.900;2023-06-14T00:41:32;5.07;;;4.40;;
21432;SDS011;18592;49.708;10.900;2023-06-14T00:43:34;4.88;;;4.10;;
21432;SDS011;18592;49.708;10.900;2023-06-14T00:45:36;5.22;;;4.05;;
21432;SDS011;18592;49.708;10.900;2023-06-14T00:47:41;5.18;;;4.00;;
21432;SDS011;18592;49.708;10.900;2023-06-14T00:49:46;5.57;;;4.22;;
21432;SDS011;18592;49.708;10.900;2023-06-14T00:51:49;6.43;;;4.22;;
21432;SDS011;18592;49.708;10.900;2023-06-14T00:53:52;4.72;;;3.95;;
21432;SDS011;18592;49.708;10.900;2023-06-14T00:55:54;4.47;;;4.05;;
21432;SDS011;18592;49.708;10.900;2023-06-14T00:57:56;6.55;;;4.40;;
21432;SDS011;18592;49.708;10.900;2023-06-14T00:59:58;5.53;;;4.38;;
21432;SDS011;18592;49.708;10.900;2023-06-14T01:02:00;4.38;;;3.97;;
21432;SDS011;18592;49.708;10.900;2023-06-14T01:04:02;6.18;;;4.60;;
21432;SDS011;18592;49.708;10.900;2023-06-14T01:08:24;5.32;;;3.88;;
21432;SDS011;18592;49.708;10.900;2023-06-14T01:12:46;5.85;;;4.20;;
21432;SDS011;18592;49.708;10.900;2023-06-14T01:14:53;5.32;;;4.68;;
21432;SDS011;18592;49.708;10.900;2023-06-14T01:16:57;5.00;;;4.50;;
21432;SDS011;18592;49.708;10.900;2023-06-14T01:19:01;7.05;;;4.18;;
21432;SDS011;18592;49.708;10.900;2023-06-14T01:21:06;5.40;;;4.28;;
21432;SDS011;18592;49.708;10.900;2023-06-14T01:23:11;4.70;;;4.30;;
21432;SDS011;18592;49.708;10.900;2023-06-14T01:25:13;4.38;;;3.97;;
21432;SDS011;18592;49.708;10.900;2023-06-14T01:27:15;5.43;;;4.20;;
21432;SDS011;18592;49.708;10.900;2023-06-14T01:29:17;4.30;;;3.65;;
21432;SDS011;18592;49.708;10.900;2023-06-14T01:31:23;5.30;;;3.90;;
21432;SDS011;18592;49.708;10.900;2023-06-14T01:33:27;4.50;;;4.10;;
21432;SDS011;18592;49.708;10.900;2023-06-14T01:35:32;4.05;;;3.40;;
21432;SDS011;18592;49.708;10.900;2023-06-14T01:37:36;4.88;;;4.13;;
21432;SDS011;18592;49.708;10.900;2023-06-14T01:39:38;6.20;;;4.00;;
21432;SDS011;18592;49.708;10.900;2023-06-14T01:41:40;5.47;;;4.03;;
21432;SDS011;18592;49.708;10.900;2023-06-14T01:43:57;5.30;;;4.00;;
21432;SDS011;18592;49.708;10.900;2023-06-14T01:46:02;4.40;;;3.85;;
21432;SDS011;18592;49.708;10.900;2023-06-14T01:48:04;5.50;;;4.10;;
21432;SDS011;18592;49.708;10.900;2023-06-14T01:50:08;5.25;;;4.20;;
21432;SDS011;18592;49.708;10.900;2023-06-14T01:52:13;6.13;;;4.50;;
21432;SDS011;18592;49.708;10.900;2023-06-14T01:54:17;5.78;;;4.20;;
21432;SDS011;18592;49.708;10.900;2023-06-14T01:56:21;5.38;;;4.57;;
21432;SDS011;18592;49.708;10.900;2023-06-14T01:58:23;4.78;;;4.28;;
21432;SDS011;18592;49.708;10.900;2023-06-14T02:00:25;4.95;;;3.92;;
21432;SDS011;18592;49.708;10.900;2023-06-14T02:02:28;5.13;;;4.30;;
21432;SDS011;18592;49.708;10.900;2023-06-14T02:04:34;4.75;;;4.10;;
21432;SDS011;18592;49.708;10.900;2023-06-14T02:06:37;4.28;;;3.80;;
21432;SDS011;18592;49.708;10.900;2023-06-14T02:08:38;5.55;;;3.75;;
21432;SDS011;18592;49.708;10.900;2023-06-14T02:10:41;4.97;;;3.50;;
21432;SDS011;18592;49.708;10.900;2023-06-14T02:12:48;4.78;;;3.50;;
21432;SDS011;18592;49.708;10.900;2023-06-14T02:14:49;4.10;;;3.70;;
21432;SDS011;18592;49.708;10.900;2023-06-14T02:16:51;4.55;;;3.97;;
21432;SDS011;18592;49.708;10.900;2023-06-14T02:18:55;4.00;;;3.60;;
21432;SDS011;18592;49.708;10.900;2023-06-14T02:20:59;4.32;;;3.92;;
21432;SDS011;18592;49.708;10.900;2023-06-14T02:23:04;5.22;;;3.88;;
21432;SDS011;18592;49.708;10.900;2023-06-14T02:25:08;4.78;;;4.10;;
21432;SDS011;18592;49.708;10.900;2023-06-14T02:27:14;5.97;;;3.95;;
21432;SDS011;18592;49.708;10.900;2023-06-14T02:29:23;4.85;;;4.00;;
21432;SDS011;18592;49.708;10.900;2023-06-14T02:31:25;4.70;;;4.10;;
21432;SDS011;18592;49.708;10.900;2023-06-14T02:33:27;5.30;;;4.30;;
21432;SDS011;18592;49.708;10.900;2023-06-14T02:35:41;3.95;;;3.60;;
21432;SDS011;18592;49.708;10.900;2023-06-14T02:37:43;5.50;;;4.00;;
21432;SDS011;18592;49.708;10.900;2023-06-14T02:39:45;4.28;;;3.88;;
21432;SDS011;18592;49.708;10.900;2023-06-14T02:41:47;6.68;;;3.70;;
21432;SDS011;18592;49.708;10.900;2023-06-14T02:43:48;4.15;;;3.75;;
21432;SDS011;18592;49.708;10.900;2023-06-14T02:45:50;4.15;;;3.75;;
21432;SDS011;18592;49.708;10.900;2023-06-14T02:47:52;3.72;;;3.38;;
21432;SDS011;18592;49.708;10.900;2023-06-14T02:49:54;6.85;;;3.90;;
21432;SDS011;18592;49.708;10.900;2023-06-14T02:51:56;4.05;;;3.42;;
21432;SDS011;18592;49.708;10.900;2023-06-14T02:54:12;4.28;;;3.78;;
21432;SDS011;18592;49.708;10.900;2023-06-14T02:56:14;5.78;;;3.85;;
21432;SDS011;18592;49.708;10.900;2023-06-14T02:58:19;4.07;;;3.67;;
21432;SDS011;18592;49.708;10.900;2023-06-14T03:00:21;4.70;;;3.72;;
21432;SDS011;18592;49.708;10.900;2023-06-14T03:02:23;5.50;;;4.80;;
21432;SDS011;18592;49.708;10.900;2023-06-14T03:04:25;4.22;;;3.80;;
21432;SDS011;18592;49.708;10.900;2023-06-14T03:06:28;4.10;;;3.70;;
21432;SDS011;18592;49.708;10.900;2023-06-14T03:08:33;4.63;;;4.22;;
21432;SDS011;18592;49.708;10.900;2023-06-14T03:10:45;4.28;;;3.70;;
21432;SDS011;18592;49.708;10.900;2023-06-14T03:12:48;4.47;;;4.00;;
21432;SDS011;18592;49.708;10.900;2023-06-14T03:14:51;4.20;;;3.80;;
21432;SDS011;18592;49.708;10.900;2023-06-14T03:16:56;4.40;;;4.00;;
21432;SDS011;18592;49.708;10.900;2023-06-14T03:18:58;4.13;;;3.80;;
21432;SDS011;18592;49.708;10.900;2023-06-14T03:21:03;5.25;;;4.22;;
21432;SDS011;18592;49.708;10.900;2023-06-14T03:23:15;5.38;;;4.15;;
21432;SDS011;18592;49.708;10.900;2023-06-14T03:25:16;6.47;;;4.13;;
21432;SDS011;18592;49.708;10.900;2023-06-14T03:27:20;4.40;;;3.90;;
21432;SDS011;18592;49.708;10.900;2023-06-14T03:29:23;4.50;;;3.75;;
21432;SDS011;18592;49.708;10.900;2023-06-14T03:31:24;4.18;;;3.67;;
21432;SDS011;18592;49.708;10.900;2023-06-14T03:33:28;5.65;;;4.15;;
21432;SDS011;18592;49.708;10.900;2023-06-14T03:35:32;5.15;;;3.53;;
21432;SDS011;18592;49.708;10.900;2023-06-14T03:37:38;4.30;;;3.90;;
21432;SDS011;18592;49.708;10.900;2023-06-14T03:39:39;4.53;;;3.65;;
21432;SDS011;18592;49.708;10.900;2023-06-14T03:41:51;4.18;;;3.67;;
21432;SDS011;18592;49.708;10.900;2023-06-14T03:43:52;4.03;;;3.40;;
21432;SDS011;18592;49.708;10.900;2023-06-14T03:45:55;3.70;;;3.40;;
21432;SDS011;18592;49.708;10.900;2023-06-14T03:48:06;4.72;;;4.20;;
21432;SDS011;18592;49.708;10.900;2023-06-14T03:50:10;4.95;;;3.50;;
21432;SDS011;18592;49.708;10.900;2023-06-14T03:52:12;4.97;;;3.85;;
21432;SDS011;18592;49.708;10.900;2023-06-14T03:54:17;5.40;;;3.75;;
21432;SDS011;18592;49.708;10.900;2023-06-14T03:56:27;5.65;;;4.10;;
21432;SDS011;18592;49.708;10.900;2023-06-14T03:58:29;4.35;;;3.95;;
21432;SDS011;18592;49.708;10.900;2023-06-14T04:00:34;4.65;;;3.55;;
21432;SDS011;18592;49.708;10.900;2023-06-14T04:02:37;4.70;;;4.13;;
21432;SDS011;18592;49.708;10.900;2023-06-14T04:04:39;4.88;;;4.15;;
21432;SDS011;18592;49.708;10.900;2023-06-14T04:06:41;6.05;;;4.18;;
21432;SDS011;18592;49.708;10.900;2023-06-14T04:08:46;4.65;;;4.20;;
21432;SDS011;18592;49.708;10.900;2023-06-14T04:10:49;5.40;;;4.40;;
21432;SDS011;18592;49.708;10.900;2023-06-14T04:12:55;4.95;;;3.90;;
21432;SDS011;18592;49.708;10.900;2023-06-14T04:15:11;5.68;;;4.13;;
21432;SDS011;18592;49.708;10.900;2023-06-14T04:17:23;4.55;;;4.05;;
21432;SDS011;18592;49.708;10.900;2023-06-14T04:19:24;5.70;;;4.38;;
21432;SDS011;18592;49.708;10.900;2023-06-14T04:21:27;4.53;;;4.05;;
21432;SDS011;18592;49.708;10.900;2023-06-14T04:23:33;4.38;;;3.90;;
21432;SDS011;18592;49.708;10.900;2023-06-14T04:25:36;4.38;;;3.97;;
21432;SDS011;18592;49.708;10.900;2023-06-14T04:27:38;4.25;;;3.85;;
21432;SDS011;18592;49.708;10.900;2023-06-14T04:29:40;4.20;;;3.80;;
21432;SDS011;18592;49.708;10.900;2023-06-14T04:31:46;4.28;;;3.53;;
21432;SDS011;18592;49.708;10.900;2023-06-14T04:33:51;3.92;;;3.50;;
21432;SDS011;18592;49.708;10.900;2023-06-14T04:35:57;3.92;;;3.53;;
21432;SDS011;18592;49.708;10.900;2023-06-14T04:37:59;3.88;;;3.50;;
21432;SDS011;18592;49.708;10.900;2023-06-14T04:40:02;4.28;;;3.83;;
21432;SDS011;18592;49.708;10.900;2023-06-14T04:42:13;4.63;;;4.13;;
21432;SDS011;18592;49.708;10.900;2023-06-14T04:44:23;6.53;;;4.45;;
21432;SDS011;18592;49.708;10.900;2023-06-14T04:46:32;4.15;;;3.75;;
21432;SDS011;18592;49.708;10.900;2023-06-14T04:48:40;4.82;;;4.13;;
21432;SDS011;18592;49.708;10.900;2023-06-14T04:50:45;5.20;;;3.90;;
21432;SDS011;18592;49.708;10.900;2023-06-14T04:52:50;4.55;;;4.10;;
21432;SDS011;18592;49.708;10.900;2023-06-14T04:55:02;5.60;;;4.05;;
21432;SDS011;18592;49.708;10.900;2023-06-14T04:57:13;4.55;;;3.92;;
21432;SDS011;18592;49.708;10.900;2023-06-14T04:59:23;4.18;;;3.78;;
21432;SDS011;18592;49.708;10.900;2023-06-14T05:01:25;4.82;;;4.13;;
21432;SDS011;18592;49.708;10.900;2023-06-14T05:03:27;5.07;;;4.10;;
21432;SDS011;18592;49.708;10.900;2023-06-14T05:05:45;5.15;;;4.05;;
21432;SDS011;18592;49.708;10.900;2023-06-14T05:07:51;4.82;;;4.40;;
21432;SDS011;18592;49.708;10.900;2023-06-14T05:09:53;4.60;;;3.85;;
21432;SDS011;18592;49.708;10.900;2023-06-14T05:11:55;6.43;;;4.22;;
21432;SDS011;18592;49.708;10.900;2023-06-14T05:13:57;3.83;;;3.50;;
21432;SDS011;18592;49.708;10.900;2023-06-14T05:16:03;4.30;;;3.90;;
21432;SDS011;18592;49.708;10.900;2023-06-14T05:18:07;4.53;;;3.90;;
21432;SDS011;18592;49.708;10.900;2023-06-14T05:20:09;4.13;;;3.70;;
21432;SDS011;18592;49.708;10.900;2023-06-14T05:22:11;5.50;;;3.75;;
21432;SDS011;18592;49.708;10.900;2023-06-14T05:24:14;5.38;;;4.05;;
21432;SDS011;18592;49.708;10.900;2023-06-14T05:26:21;4.13;;;3.72;;
21432;SDS011;18592;49.708;10.900;2023-06-14T05:28:25;6.18;;;4.47;;
21432;SDS011;18592;49.708;10.900;2023-06-14T05:30:27;4.47;;;3.90;;
21432;SDS011;18592;49.708;10.900;2023-06-14T05:32:45;5.03;;;4.00;;
21432;SDS011;18592;49.708;10.900;2023-06-14T05:35:01;5.78;;;4.10;;
21432;SDS011;18592;49.708;10.900;2023-06-14T05:37:03;6.63;;;4.20;;
21432;SDS011;18592;49.708;10.900;2023-06-14T05:39:07;5.00;;;3.75;;
21432;SDS011;18592;49.708;10.900;2023-06-14T05:41:11;5.10;;;3.90;;
21432;SDS011;18592;49.708;10.900;2023-06-14T05:43:14;5.88;;;3.70;;
21432;SDS011;18592;49.708;10.900;2023-06-14T05:45:16;5.40;;;3.90;;
21432;SDS011;18592;49.708;10.900;2023-06-14T05:47:18;4.70;;;3.78;;
21432;SDS011;18592;49.708;10.900;2023-06-14T05:49:21;4.28;;;3.88;;
21432;SDS011;18592;49.708;10.900;2023-06-14T05:51:25;3.85;;;3.45;;
21432;SDS011;18592;49.708;10.900;2023-06-14T05:53:28;4.05;;;3.65;;
21432;SDS011;18592;49.708;10.900;2023-06-14T05:55:29;5.15;;;3.67;;
21432;SDS011;18592;49.708;10.900;2023-06-14T05:57:31;5.40;;;4.18;;
21432;SDS011;18592;49.708;10.900;2023-06-14T05:59:33;5.38;;;3.92;;
21432;SDS011;18592;49.708;10.900;2023-06-14T06:01:36;5.43;;;3.58;;
21432;SDS011;18592;49.708;10.900;2023-06-14T06:03:39;3.92;;;3.33;;
21432;SDS011;18592;49.708;10.900;2023-06-14T06:05:41;4.45;;;3.42;;
21432;SDS011;18592;49.708;10.900;2023-06-14T06:07:42;4.32;;;3.38;;
21432;SDS011;18592;49.708;10.900;2023-06-14T06:09:47;4.00;;;3.50;;
21432;SDS011;18592;49.708;10.900;2023-06-14T06:11:51;4.28;;;3.45;;
21432;SDS011;18592;49.708;10.900;2023-06-14T06:14:00;4.10;;;3.20;;
21432;SDS011;18592;49.708;10.900;2023-06-14T06:16:03;4.00;;;3.40;;
21432;SDS011;18592;49.708;10.900;2023-06-14T06:18:06;3.80;;;3.33;;
21432;SDS011;18592;49.708;10.900;2023-06-14T06:20:08;3.65;;;3.22;;
21432;SDS011;18592;49.708;10.900;2023-06-14T06:22:12;3.65;;;3.35;;
21432;SDS011;18592;49.708;10.900;2023-06-14T06:24:18;6.68;;;3.50;;
21432;SDS011;18592;49.708;10.900;2023-06-14T06:26:21;7.55;;;3.40;;
21432;SDS011;18592;49.708;10.900;2023-06-14T06:28:24;4.50;;;3.20;;
21432;SDS011;18592;49.708;10.900;2023-06-14T06:30:28;4.25;;;3.40;;
21432;SDS011;18592;49.708;10.900;2023-06-14T06:32:35;3.80;;;3.13;;
21432;SDS011;18592;49.708;10.900;2023-06-14T06:34:37;3.50;;;3.20;;
21432;SDS011;18592;49.708;10.900;2023-06-14T06:36:40;5.40;;;3.10;;
21432;SDS011;18592;49.708;10.900;2023-06-14T06:38:43;3.65;;;3.35;;
21432;SDS011;18592;49.708;10.900;2023-06-14T06:40:45;6.05;;;3.80;;
21432;SDS011;18592;49.708;10.900;2023-06-14T06:42:45;6.95;;;3.60;;
21432;SDS011;18592;49.708;10.900;2023-06-14T06:44:51;3.60;;;3.30;;
21432;SDS011;18592;49.708;10.900;2023-06-14T06:46:53;4.68;;;3.40;;
21432;SDS011;18592;49.708;10.900;2023-06-14T06:48:56;3.67;;;3.35;;
21432;SDS011;18592;49.708;10.900;2023-06-14T06:50:57;3.63;;;3.25;;
21432;SDS011;18592;49.708;10.900;2023-06-14T06:53:00;4.25;;;3.33;;
21432;SDS011;18592;49.708;10.900;2023-06-14T06:55:02;3.88;;;3.47;;
21432;SDS011;18592;49.708;10.900;2023-06-14T06:57:05;4.10;;;3.10;;
21432;SDS011;18592;49.708;10.900;2023-06-14T06:59:07;5.07;;;3.22;;
21432;SDS011;18592;49.708;10.900;2023-06-14T07:01:09;3.65;;;3.35;;
21432;SDS011;18592;49.708;10.900;2023-06-14T07:03:12;4.15;;;3.00;;
21432;SDS011;18592;49.708;10.900;2023-06-14T07:05:14;4.05;;;3.20;;
21432;SDS011;18592;49.708;10.900;2023-06-14T07:07:17;3.72;;;3.30;;
21432;SDS011;18592;49.708;10.900;2023-06-14T07:09:18;2.80;;;2.60;;
21432;SDS011;18592;49.708;10.900;2023-06-14T07:11:20;3.38;;;3.00;;
21432;SDS011;18592;49.708;10.900;2023-06-14T07:13:21;3.55;;;3.13;;
21432;SDS011;18592;49.708;10.900;2023-06-14T07:15:23;3.30;;;3.00;;
21432;SDS011;18592;49.708;10.900;2023-06-14T07:17:25;3.58;;;3.28;;
21432;SDS011;18592;49.708;10.900;2023-06-14T07:19:26;4.13;;;2.97;;
21432;SDS011;18592;49.708;10.900;2023-06-14T07:21:28;3.33;;;2.90;;
21432;SDS011;18592;49.708;10.900;2023-06-14T07:23:31;4.38;;;3.25;;
21432;SDS011;18592;49.708;10.900;2023-06-14T07:25:33;3.83;;;2.80;;
21432;SDS011;18592;49.708;10.900;2023-06-14T07:27:35;4.57;;;3.00;;
21432;SDS011;18592;49.708;10.900;2023-06-14T07:29:36;4.25;;;3.05;;
21432;SDS011;18592;49.708;10.900;2023-06-14T07:31:38;3.53;;;2.90;;
21432;SDS011;18592;49.708;10.900;2023-06-14T07:33:40;3.53;;;2.85;;
21432;SDS011;18592;49.708;10.900;2023-06-14T07:35:41;3.60;;;2.97;;
21432;SDS011;18592;49.708;10.900;2023-06-14T07:37:43;4.68;;;3.20;;
21432;SDS011;18592;49.708;10.900;2023-06-14T07:39:45;3.22;;;2.90;;
21432;SDS011;18592;49.708;10.900;2023-06-14T07:41:47;5.07;;;3.17;;
21432;SDS011;18592;49.708;10.900;2023-06-14T07:43:49;3.20;;;2.90;;
21432;SDS011;18592;49.708;10.900;2023-06-14T07:45:51;3.20;;;2.90;;
21432;SDS011;18592;49.708;10.900;2023-06-14T07:48:07;2.63;;;2.42;;
21432;SDS011;18592;49.708;10.900;2023-06-14T07:50:12;3.20;;;2.75;;
21432;SDS011;18592;49.708;10.900;2023-06-14T07:52:16;4.00;;;2.78;;
21432;SDS011;18592;49.708;10.900;2023-06-14T07:54:19;3.30;;;2.78;;
21432;SDS011;18592;49.708;10.900;2023-06-14T07:56:24;4.07;;;2.80;;
21432;SDS011;18592;49.708;10.900;2023-06-14T07:58:26;3.42;;;2.80;;
21432;SDS011;18592;49.708;10.900;2023-06-14T08:00:28;2.53;;;2.33;;
21432;SDS011;18592;49.708;10.900;2023-06-14T08:02:31;2.42;;;2.22;;
21432;SDS011;18592;49.708;10.900;2023-06-14T08:04:32;4.20;;;2.70;;
21432;SDS011;18592;49.708;10.900;2023-06-14T08:06:35;2.67;;;2.45;;
21432;SDS011;18592;49.708;10.900;2023-06-14T08:08:37;3.55;;;2.63;;
21432;SDS011;18592;49.708;10.900;2023-06-14T08:10:43;3.17;;;2.50;;
21432;SDS011;18592;49.708;10.900;2023-06-14T08:12:45;3.38;;;2.78;;
21432;SDS011;18592;49.708;10.900;2023-06-14T08:14:47;2.83;;;2.53;;
21432;SDS011;18592;49.708;10.900;2023-06-14T08:17:01;4.45;;;2.70;;
21432;SDS011;18592;49.708;10.900;2023-06-14T08:19:03;3.42;;;2.63;;
21432;SDS011;18592;49.708;10.900;2023-06-14T08:21:05;2.88;;;2.60;;
21432;SDS011;18592;49.708;10.900;2023-06-14T08:23:07;2.95;;;2.53;;
21432;SDS011;18592;49.708;10.900;2023-06-14T08:25:10;2.60;;;2.40;;
21432;SDS011;18592;49.708;10.900;2023-06-14T08:27:14;2.90;;;2.42;;
21432;SDS011;18592;49.708;10.900;2023-06-14T08:29:19;2.78;;;2.50;;
21432;SDS011;18592;49.708;10.900;2023-06-14T08:31:21;2.92;;;2.55;;
21432;SDS011;18592;49.708;10.900;2023-06-14T08:33:23;2.72;;;2.53;;
21432;SDS011;18592;49.708;10.900;2023-06-14T08:35:25;5.78;;;2.47;;
21432;SDS011;18592;49.708;10.900;2023-06-14T08:37:27;3.15;;;2.25;;
21432;SDS011;18592;49.708;10.900;2023-06-14T08:39:28;3.00;;;2.70;;
21432;SDS011;18592;49.708;10.900;2023-06-14T08:41:30;3.10;;;2.30;;
21432;SDS011;18592;49.708;10.900;2023-06-14T08:43:32;2.75;;;2.50;;
21432;SDS011;18592;49.708;10.900;2023-06-14T08:45:34;2.97;;;2.55;;
21432;SDS011;18592;49.708;10.900;2023-06-14T08:47:36;2.92;;;2.50;;
21432;SDS011;18592;49.708;10.900;2023-06-14T08:49:42;2.88;;;2.60;;
21432;SDS011;18592;49.708;10.900;2023-06-14T08:51:49;2.70;;;2.50;;
21432;SDS011;18592;49.708;10.900;2023-06-14T08:53:55;4.47;;;2.70;;
21432;SDS011;18592;49.708;10.900;2023-06-14T08:55:59;2.40;;;2.20;;
21432;SDS011;18592;49.708;10.900;2023-06-14T08:58:02;3.10;;;2.47;;
21432;SDS011;18592;49.708;10.900;2023-06-14T09:00:06;4.93;;;2.75;;
21432;SDS011;18592;49.708;10.900;2023-06-14T09:02:15;3.80;;;2.60;;
21432;SDS011;18592;49.708;10.900;2023-06-14T09:04:21;3.42;;;2.20;;
21432;SDS011;18592;49.708;10.900;2023-06-14T09:06:23;2.35;;;2.15;;
21432;SDS011;18592;49.708;10.900;2023-06-14T09:08:28;3.13;;;2.67;;
21432;SDS011;18592;49.708;10.900;2023-06-14T09:10:33;3.13;;;2.83;;
21432;SDS011;18592;49.708;10.900;2023-06-14T09:16:27;3.42;;;2.60;;
21432;SDS011;18592;49.708;10.900;2023-06-14T09:20:38;2.70;;;2.50;;
21432;SDS011;18592;49.708;10.900;2023-06-14T09:22:45;2.83;;;2.55;;
21432;SDS011;18592;49.708;10.900;2023-06-14T09:24:50;2.75;;;2.55;;
21432;SDS011;18592;49.708;10.900;2023-06-14T09:26:55;3.45;;;2.65;;
21432;SDS011;18592;49.708;10.900;2023-06-14T09:29:04;3.33;;;2.50;;
21432;SDS011;18592;49.708;10.900;2023-06-14T09:31:09;4.45;;;2.70;;
21432;SDS011;18592;49.708;10.900;2023-06-14T09:33:16;2.70;;;2.50;;
21432;SDS011;18592;49.708;10.900;2023-06-14T09:35:19;3.53;;;2.50;;
21432;SDS011;18592;49.708;10.900;2023-06-14T09:37:30;3.30;;;2.38;;
21432;SDS011;18592;49.708;10.900;2023-06-14T09:39:33;2.60;;;2.30;;
21432;SDS011;18592;49.708;10.900;2023-06-14T09:41:35;2.75;;;2.45;;
21432;SDS011;18592;49.708;10.900;2023-06-14T09:43:42;2.88;;;2.17;;
21432;SDS011;18592;49.708;10.900;2023-06-14T09:45:46;3.70;;;2.40;;
21432;SDS011;18592;49.708;10.900;2023-06-14T09:47:50;5.85;;;3.00;;
21432;SDS011;18592;49.708;10.900;2023-06-14T09:50:06;2.67;;;2.42;;
21432;SDS011;18592;49.708;10.900;2023-06-14T09:52:17;3.80;;;2.55;;
21432;SDS011;18592;49.708;10.900;2023-06-14T09:54:20;3.25;;;2.65;;
21432;SDS011;18592;49.708;10.900;2023-06-14T09:56:29;3.10;;;2.80;;
21432;SDS011;18592;49.708;10.900;2023-06-14T09:58:32;3.30;;;2.78;;
21432;SDS011;18592;49.708;10.900;2023-06-14T10:00:41;3.20;;;2.72;;
21432;SDS011;18592;49.708;10.900;2023-06-14T10:02:52;4.65;;;2.78;;
21432;SDS011;18592;49.708;10.900;2023-06-14T10:05:07;4.97;;;3.30;;
21432;SDS011;18592;49.708;10.900;2023-06-14T10:07:12;6.78;;;4.25;;
21432;SDS011;18592;49.708;10.900;2023-06-14T10:09:19;8.70;;;4.30;;
21432;SDS011;18592;49.708;10.900;2023-06-14T10:11:33;7.18;;;3.60;;
21432;SDS011;18592;49.708;10.900;2023-06-14T10:13:47;6.30;;;4.13;;
21432;SDS011;18592;49.708;10.900;2023-06-14T10:15:51;4.75;;;3.67;;
21432;SDS011;18592;49.708;10.900;2023-06-14T10:18:01;6.22;;;3.30;;
21432;SDS011;18592;49.708;10.900;2023-06-14T10:20:42;4.72;;;3.33;;
21432;SDS011;18592;49.708;10.900;2023-06-14T10:23:01;3.25;;;2.50;;
21432;SDS011;18592;49.708;10.900;2023-06-14T10:25:25;3.40;;;2.67;;
21432;SDS011;18592;49.708;10.900;2023-06-14T10:27:34;2.88;;;2.50;;
21432;SDS011;18592;49.708;10.900;2023-06-14T10:32:18;2.60;;;2.40;;
21432;SDS011;18592;49.708;10.900;2023-06-14T10:34:21;3.38;;;2.50;;
21432;SDS011;18592;49.708;10.900;2023-06-14T10:36:25;2.72;;;2.53;;
21432;SDS011;18592;49.708;10.900;2023-06-14T10:38:32;3.45;;;2.92;;
21432;SDS011;18592;49.708;10.900;2023-06-14T10:40:34;2.70;;;2.50;;
21432;SDS011;18592;49.708;10.900;2023-06-14T10:42:38;4.85;;;2.88;;
21432;SDS011;18592;49.708;10.900;2023-06-14T10:44:53;3.10;;;2.78;;
21432;SDS011;18592;49.708;10.900;2023-06-14T10:47:01;2.85;;;2.60;;
21432;SDS011;18592;49.708;10.900;2023-06-14T10:49:08;3.38;;;2.63;;
21432;SDS011;18592;49.708;10.900;2023-06-14T10:51:17;2.47;;;2.28;;
21432;SDS011;18592;49.708;10.900;2023-06-14T10:53:22;3.22;;;2.30;;
21432;SDS011;18592;49.708;10.900;2023-06-14T10:55:25;2.35;;;2.15;;
21432;SDS011;18592;49.708;10.900;2023-06-14T10:57:27;2.53;;;2.33;;
21432;SDS011;18592;49.708;10.900;2023-06-14T10:59:29;4.75;;;2.50;;
21432;SDS011;18592;49.708;10.900;2023-06-14T11:03:43;2.70;;;2.42;;
21432;SDS011;18592;49.708;10.900;2023-06-14T11:05:54;2.60;;;2.40;;
21432;SDS011;18592;49.708;10.900;2023-06-14T11:12:37;3.10;;;2.60;;
21432;SDS011;18592;49.708;10.900;2023-06-14T11:14:41;5.63;;;2.30;;
21432;SDS011;18592;49.708;10.900;2023-06-14T11:17:33;2.35;;;2.15;;
21432;SDS011;18592;49.708;10.900;2023-06-14T11:20:12;2.60;;;2.40;;
21432;SDS011;18592;49.708;10.900;2023-06-14T11:22:38;5.68;;;2.80;;
21432;SDS011;18592;49.708;10.900;2023-06-14T11:24:51;2.67;;;2.47;;
21432;SDS011;18592;49.708;10.900;2023-06-14T11:26:53;2.45;;;2.25;;
21432;SDS011;18592;49.708;10.900;2023-06-14T11:28:58;4.68;;;2.50;;
21432;SDS011;18592;49.708;10.900;2023-06-14T11:31:01;2.83;;;2.45;;
21432;SDS011;18592;49.708;10.900;2023-06-14T11:33:04;3.30;;;2.63;;
21432;SDS011;18592;49.708;10.900;2023-06-14T11:35:10;3.00;;;2.70;;
21432;SDS011;18592;49.708;10.900;2023-06-14T11:37:15;3.25;;;2.50;;
21432;SDS011;18592;49.708;10.900;2023-06-14T11:39:24;2.90;;;2.58;;
21432;SDS011;18592;49.708;10.900;2023-06-14T11:41:31;3.38;;;2.70;;
21432;SDS011;18592;49.708;10.900;2023-06-14T11:43:34;2.58;;;2.30;;
21432;SDS011;18592;49.708;10.900;2023-06-14T11:45:38;5.03;;;2.65;;
21432;SDS011;18592;49.708;10.900;2023-06-14T11:47:53;2.90;;;2.60;;
21432;SDS011;18592;49.708;10.900;2023-06-14T11:50:02;2.60;;;2.22;;
21432;SDS011;18592;49.708;10.900;2023-06-14T11:52:06;3.67;;;2.22;;
21432;SDS011;18592;49.708;10.900;2023-06-14T11:54:12;2.78;;;2.38;;
21432;SDS011;18592;49.708;10.900;2023-06-14T11:56:14;2.50;;;2.17;;
21432;SDS011;18592;49.708;10.900;2023-06-14T11:58:18;3.00;;;2.33;;
21432;SDS011;18592;49.708;10.900;2023-06-14T12:03:16;2.60;;;2.13;;
21432;SDS011;18592;49.708;10.900;2023-06-14T12:05:20;2.72;;;2.53;;
21432;SDS011;18592;49.708;10.900;2023-06-14T12:07:22;4.20;;;2.53;;
21432;SDS011;18592;49.708;10.900;2023-06-14T12:09:24;2.97;;;2.47;;
21432;SDS011;18592;49.708;10.900;2023-06-14T12:11:32;5.63;;;2.45;;
21432;SDS011;18592;49.708;10.900;2023-06-14T12:13:39;2.60;;;2.40;;
21432;SDS011;18592;49.708;10.900;2023-06-14T12:15:53;3.65;;;2.95;;
21432;SDS011;18592;49.708;10.900;2023-06-14T12:17:56;2.95;;;2.65;;
21432;SDS011;18592;49.708;10.900;2023-06-14T12:19:59;3.13;;;2.80;;
21432;SDS011;18592;49.708;10.900;2023-06-14T12:22:08;2.67;;;2.47;;
21432;SDS011;18592;49.708;10.900;2023-06-14T12:24:18;3.10;;;2.67;;
21432;SDS011;18592;49.708;10.900;2023-06-14T12:26:37;2.28;;;2.08;;
21432;SDS011;18592;49.708;10.900;2023-06-14T12:28:40;2.50;;;2.30;;
21432;SDS011;18592;49.708;10.900;2023-06-14T12:30:43;2.97;;;2.67;;
21432;SDS011;18592;49.708;10.900;2023-06-14T12:32:52;2.85;;;2.55;;
21432;SDS011;18592;49.708;10.900;2023-06-14T12:35:07;2.80;;;2.50;;
21432;SDS011;18592;49.708;10.900;2023-06-14T12:37:10;2.95;;;2.65;;
21432;SDS011;18592;49.708;10.900;2023-06-14T12:39:25;3.67;;;2.65;;
21432;SDS011;18592;49.708;10.900;2023-06-14T12:41:34;2.65;;;2.45;;
21432;SDS011;18592;49.708;10.900;2023-06-14T12:43:35;2.42;;;2.22;;